Time;durP1;ratioP1;P1;durP2;ratioP2;P2;SDS_P1;SDS_P2;PMS_P1;PMS_P2;Temp;Humidity;BMP_temperature;BMP_pressure;BME280_temperature;BME280_humidity;BME280_pressure;Samples;Min_cycle;Max_cycle;Signal;HPM_P1;HPM_P2
2023/03/23 00:02:13;;;;;;;9.95;7.38;;;20.90;77.90;;;;;;5055577;28;20535;-61
2023/03/23 00:04:42;;;;;;;9.02;7.80;;;20.90;77.90;;;;;;5059052;28;20395;-60
2023/03/23 00:07:09;;;;;;;9.43;7.03;;;20.90;77.90;;;;;;5056251;28;20266;-58
2023/03/23 00:09:40;;;;;;;8.98;7.25;;;20.90;77.90;;;;;;5056138;28;20202;-60
2023/03/23 00:12:07;;;;;;;7.82;6.93;;;20.90;77.90;;;;;;5056623;28;20203;-59
2023/03/23 00:14:42;;;;;;;8.40;7.00;;;20.90;78.00;;;;;;5050900;28;20219;-61
2023/03/23 00:17:10;;;;;;;10.68;7.63;;;20.90;78.20;;;;;;5053940;28;20571;-59
2023/03/23 00:19:45;;;;;;;10.45;7.43;;;20.80;77.90;;;;;;5060716;28;20195;-60
2023/03/23 00:22:13;;;;;;;11.50;7.90;;;20.80;77.90;;;;;;5054037;28;21959;-60
2023/03/23 00:24:40;;;;;;;9.63;7.30;;;20.80;77.90;;;;;;5054860;28;20192;-60
2023/03/23 00:27:08;;;;;;;11.90;7.80;;;20.80;77.90;;;;;;5063620;28;20222;-60
2023/03/23 00:29:36;;;;;;;9.15;7.45;;;20.80;77.90;;;;;;5057281;28;20659;-60
2023/03/23 00:32:03;;;;;;;11.18;7.03;;;20.80;77.90;;;;;;5062896;28;20237;-60
2023/03/23 00:34:33;;;;;;;8.15;7.30;;;20.80;77.90;;;;;;5053381;28;20203;-62
2023/03/23 00:37:00;;;;;;;8.57;6.78;;;20.80;77.90;;;;;;5061014;28;20202;-60
2023/03/23 00:39:29;;;;;;;11.00;7.72;;;20.80;78.00;;;;;;5060971;28;20198;-60
2023/03/23 00:42:00;;;;;;;7.53;6.70;;;20.80;77.90;;;;;;5059530;28;20286;-60
2023/03/23 00:44:28;;;;;;;9.75;7.95;;;20.80;78.00;;;;;;5054926;28;20611;-61
2023/03/23 00:46:56;;;;;;;7.18;6.50;;;20.70;77.90;;;;;;5042995;28;20721;-59
2023/03/23 00:49:25;;;;;;;8.25;7.00;;;20.70;77.90;;;;;;5063920;28;20202;-60
2023/03/23 00:51:52;;;;;;;10.10;7.90;;;20.70;78.00;;;;;;5059201;28;20227;-60
2023/03/23 00:54:19;;;;;;;10.25;7.75;;;20.70;78.70;;;;;;5065630;28;20852;-60
2023/03/23 00:56:46;;;;;;;10.25;7.72;;;20.70;77.90;;;;;;5055347;28;20230;-60
2023/03/23 00:59:13;;;;;;;10.23;6.70;;;20.70;78.00;;;;;;5055340;28;20202;-60
2023/03/23 01:01:40;;;;;;;10.80;6.70;;;20.70;77.90;;;;;;5052116;28;20376;-60
2023/03/23 01:04:12;;;;;;;7.65;6.38;;;20.70;78.00;;;;;;5056009;28;20203;-60
2023/03/23 01:06:42;;;;;;;7.15;6.22;;;20.70;78.00;;;;;;5061168;28;20702;-58
2023/03/23 01:09:10;;;;;;;11.50;6.82;;;20.70;78.00;;;;;;5061229;28;20649;-60
2023/03/23 01:11:38;;;;;;;10.82;7.25;;;20.70;78.00;;;;;;5060849;28;20190;-60
2023/03/23 01:14:05;;;;;;;11.52;7.00;;;20.60;77.90;;;;;;5055747;28;20285;-60
2023/03/23 01:16:32;;;;;;;7.25;6.25;;;20.70;78.00;;;;;;5056307;28;20198;-59
2023/03/23 01:18:58;;;;;;;10.38;7.03;;;20.60;77.90;;;;;;5059604;28;20204;-61
2023/03/23 01:21:27;;;;;;;6.63;5.93;;;20.60;77.90;;;;;;5060736;28;20195;-61
2023/03/23 01:23:53;;;;;;;6.68;6.07;;;20.60;77.90;;;;;;5060139;28;20187;-59
2023/03/23 01:26:23;;;;;;;7.68;6.88;;;20.60;78.00;;;;;;5061062;28;20733;-59
2023/03/23 01:28:50;;;;;;;9.98;6.95;;;20.60;78.00;;;;;;5063163;28;20200;-59
2023/03/23 01:31:19;;;;;;;8.00;6.38;;;20.60;78.00;;;;;;5062273;28;20191;-61
2023/03/23 01:33:46;;;;;;;7.70;6.50;;;20.60;78.00;;;;;;5065124;28;20525;-60
2023/03/23 01:36:15;;;;;;;7.15;6.38;;;20.60;78.00;;;;;;5054958;28;20199;-57
2023/03/23 01:38:45;;;;;;;7.30;6.50;;;20.60;78.00;;;;;;5064222;28;20296;-59
2023/03/23 01:41:12;;;;;;;8.43;7.20;;;20.60;78.10;;;;;;5055786;28;20205;-59
2023/03/23 01:43:55;;;;;;;9.18;6.43;;;20.60;78.00;;;;;;5063284;28;20650;-61
2023/03/23 01:46:22;;;;;;;7.47;6.72;;;20.60;78.90;;;;;;5055477;28;20223;-60
2023/03/23 01:48:51;;;;;;;7.22;6.38;;;20.60;78.10;;;;;;5057623;28;20218;-60
2023/03/23 01:51:19;;;;;;;8.88;6.68;;;20.50;78.00;;;;;;5059062;28;20199;-59
2023/03/23 01:53:52;;;;;;;10.52;6.93;;;20.50;78.00;;;;;;5054807;28;20206;-58
2023/03/23 01:56:24;;;;;;;8.65;6.20;;;20.50;78.00;;;;;;5053581;28;20203;-60
2023/03/23 01:58:52;;;;;;;7.38;6.47;;;20.50;78.00;;;;;;5052327;28;20214;-60
2023/03/23 02:01:24;;;;;;;9.35;6.78;;;20.50;78.00;;;;;;5052425;28;20195;-60
2023/03/23 02:03:52;;;;;;;8.95;7.15;;;20.50;78.00;;;;;;5059191;28;20195;-61
2023/03/23 02:06:19;;;;;;;6.75;5.78;;;20.50;78.10;;;;;;5059735;28;20339;-59
2023/03/23 02:08:49;;;;;;;6.80;6.10;;;20.50;78.00;;;;;;5054930;28;22312;-60
2023/03/23 02:11:17;;;;;;;8.43;6.13;;;20.50;78.10;;;;;;5055979;28;20206;-59
2023/03/23 02:13:44;;;;;;;8.20;6.03;;;20.50;78.10;;;;;;5057769;28;20191;-61
2023/03/23 02:16:20;;;;;;;9.43;6.22;;;20.50;78.10;;;;;;5054516;28;20234;-61
2023/03/23 02:19:08;;;;;;;5.97;5.47;;;20.50;78.10;;;;;;5051808;28;20195;-60
2023/03/23 02:22:12;;;;;;;7.05;5.22;;;20.50;78.10;;;;;;5060056;28;20207;-59
2023/03/23 02:24:56;;;;;;;9.23;5.80;;;20.50;78.10;;;;;;5057550;28;20770;-61
2023/03/23 02:27:39;;;;;;;7.95;6.30;;;20.40;78.00;;;;;;5055174;28;20306;-60
2023/03/23 02:30:26;;;;;;;8.38;5.50;;;20.40;78.00;;;;;;5053014;28;20695;-60
2023/03/23 02:33:20;;;;;;;8.05;6.30;;;20.40;78.00;;;;;;5054522;28;20234;-60
2023/03/23 02:35:53;;;;;;;7.32;5.65;;;20.40;78.00;;;;;;5051267;28;20210;-60
2023/03/23 02:38:24;;;;;;;6.18;5.30;;;20.40;78.00;;;;;;5048043;28;20203;-61
2023/03/23 02:40:52;;;;;;;6.97;5.72;;;20.40;78.00;;;;;;5066236;28;20273;-60
2023/03/23 02:43:22;;;;;;;7.68;6.53;;;20.40;78.10;;;;;;5052128;28;20210;-60
2023/03/23 02:45:49;;;;;;;7.72;5.90;;;20.40;78.10;;;;;;5052983;28;20203;-60
2023/03/23 02:48:20;;;;;;;6.20;5.25;;;20.40;78.10;;;;;;5057690;28;20222;-60
2023/03/23 02:50:52;;;;;;;5.38;4.88;;;20.40;78.10;;;;;;5057535;28;20220;-60
2023/03/23 02:53:22;;;;;;;5.35;4.78;;;20.40;78.10;;;;;;5056928;28;20200;-58
2023/03/23 02:55:49;;;;;;;8.13;5.57;;;20.40;78.10;;;;;;5053112;28;20219;-61
2023/03/23 02:58:16;;;;;;;6.78;5.88;;;20.40;78.10;;;;;;5057497;28;20194;-61
2023/03/23 03:00:44;;;;;;;5.75;4.97;;;20.40;78.10;;;;;;5059952;28;20202;-60
2023/03/23 03:03:15;;;;;;;7.03;5.32;;;20.40;78.10;;;;;;5055373;28;20192;-60
2023/03/23 03:05:49;;;;;;;6.40;5.85;;;20.40;78.10;;;;;;5055260;28;20616;-59
2023/03/23 03:08:24;;;;;;;6.55;5.72;;;20.40;78.20;;;;;;5059286;28;20222;-60
2023/03/23 03:10:56;;;;;;;6.57;5.68;;;20.30;78.00;;;;;;5055514;28;20206;-60
2023/03/23 03:13:40;;;;;;;6.00;5.40;;;20.30;78.10;;;;;;5051402;28;20673;-60
2023/03/23 03:16:19;;;;;;;6.88;5.43;;;20.30;78.10;;;;;;5058066;28;20226;-60
2023/03/23 03:18:49;;;;;;;5.70;5.10;;;20.30;78.10;;;;;;5064284;28;20216;-61
2023/03/23 03:21:19;;;;;;;5.85;5.15;;;20.30;78.10;;;;;;5064136;28;20210;-59
2023/03/23 03:23:51;;;;;;;7.20;5.78;;;20.30;78.10;;;;;;5058390;28;20186;-60
2023/03/23 03:26:20;;;;;;;5.13;4.63;;;20.30;78.10;;;;;;5059312;28;20562;-60
2023/03/23 03:28:49;;;;;;;8.60;4.90;;;20.30;78.10;;;;;;5066457;28;20763;-60
2023/03/23 03:31:19;;;;;;;8.68;5.25;;;20.30;78.10;;;;;;5065660;28;20199;-60
2023/03/23 03:33:46;;;;;;;7.53;5.50;;;20.30;78.10;;;;;;5060755;28;20214;-60
2023/03/23 03:36:16;;;;;;;5.60;5.00;;;20.30;78.60;;;;;;5061293;28;20201;-58
2023/03/23 03:38:44;;;;;;;6.75;5.25;;;20.30;78.10;;;;;;5068039;28;20191;-60
2023/03/23 03:41:12;;;;;;;6.55;5.63;;;20.30;78.10;;;;;;5058182;28;20652;-59
2023/03/23 03:43:39;;;;;;;9.82;5.60;;;20.30;78.10;;;;;;5062900;28;20200;-60
2023/03/23 03:46:06;;;;;;;5.00;4.50;;;20.30;78.10;;;;;;5055415;28;20223;-60
2023/03/23 03:48:33;;;;;;;5.78;5.05;;;20.20;78.00;;;;;;5049305;28;20244;-60
2023/03/23 03:51:01;;;;;;;4.72;4.30;;;20.20;78.00;;;;;;5052680;28;20195;-60
2023/03/23 03:53:28;;;;;;;5.20;4.72;;;20.30;78.10;;;;;;5051022;28;20202;-60
2023/03/23 03:55:59;;;;;;;5.20;4.38;;;20.20;78.00;;;;;;5053137;28;20192;-60
2023/03/23 03:58:35;;;;;;;6.15;5.47;;;20.20;78.00;;;;;;5053522;28;20650;-57
2023/03/23 04:01:03;;;;;;;6.80;5.05;;;20.20;78.00;;;;;;5051927;28;20206;-61
2023/03/23 04:03:30;;;;;;;6.90;6.20;;;20.20;78.00;;;;;;5049241;28;20203;-59
2023/03/23 04:05:59;;;;;;;5.75;5.07;;;20.20;78.00;;;;;;5050420;28;20570;-60
2023/03/23 04:08:26;;;;;;;5.20;4.70;;;20.20;78.00;;;;;;5049873;28;20219;-60
2023/03/23 04:10:53;;;;;;;5.60;5.10;;;20.20;78.00;;;;;;5053775;28;20187;-60
2023/03/23 04:13:20;;;;;;;5.43;4.93;;;20.20;78.80;;;;;;5053006;28;20276;-60
2023/03/23 04:15:49;;;;;;;7.72;5.28;;;20.20;78.00;;;;;;5047653;28;20527;-60
2023/03/23 04:18:17;;;;;;;5.40;4.90;;;20.20;78.10;;;;;;5050851;28;20207;-61
2023/03/23 04:20:47;;;;;;;5.55;5.05;;;20.20;78.00;;;;;;5059130;28;20831;-60
2023/03/23 04:23:14;;;;;;;5.75;5.03;;;20.20;78.00;;;;;;5055062;28;20297;-60
2023/03/23 04:25:41;;;;;;;5.28;4.63;;;20.20;78.10;;;;;;5053246;28;20579;-59
2023/03/23 04:28:09;;;;;;;5.63;5.13;;;20.20;78.10;;;;;;5057777;28;20219;-60
2023/03/23 04:30:37;;;;;;;5.10;4.60;;;20.20;78.10;;;;;;5059603;28;20575;-60
2023/03/23 04:33:05;;;;;;;6.43;5.10;;;20.10;78.00;;;;;;5063163;28;20195;-60
2023/03/23 04:35:33;;;;;;;6.82;4.93;;;20.10;78.00;;;;;;5056934;28;20202;-60
2023/03/23 04:38:00;;;;;;;6.25;5.10;;;20.10;78.00;;;;;;5058396;28;20294;-60
2023/03/23 04:40:27;;;;;;;4.60;4.20;;;20.10;78.00;;;;;;5058228;28;20222;-58
2023/03/23 04:42:57;;;;;;;5.75;5.25;;;20.10;78.00;;;;;;5057004;28;20195;-61
2023/03/23 04:45:24;;;;;;;5.30;4.80;;;20.10;78.00;;;;;;5048187;28;20191;-59
2023/03/23 04:47:57;;;;;;;5.50;4.78;;;20.10;78.00;;;;;;5054966;28;20237;-61
2023/03/23 04:50:30;;;;;;;6.88;5.13;;;20.10;78.00;;;;;;5051438;28;20248;-60
2023/03/23 04:52:58;;;;;;;6.20;4.75;;;20.10;78.00;;;;;;5051219;28;20663;-59
2023/03/23 04:55:25;;;;;;;6.85;4.85;;;20.10;78.00;;;;;;5059922;28;20678;-61
2023/03/23 04:57:52;;;;;;;5.30;4.80;;;20.10;78.00;;;;;;5055122;28;20199;-57
2023/03/23 05:00:20;;;;;;;5.18;4.70;;;20.10;78.10;;;;;;5046664;28;20192;-58
2023/03/23 05:02:51;;;;;;;5.40;4.90;;;20.10;78.00;;;;;;5058814;28;20190;-60
2023/03/23 05:05:19;;;;;;;4.82;4.38;;;20.10;78.10;;;;;;5060041;28;20194;-60
2023/03/23 05:07:47;;;;;;;6.47;4.13;;;20.10;78.10;;;;;;5054353;28;20223;-60
2023/03/23 05:10:15;;;;;;;5.25;4.45;;;20.10;78.20;;;;;;5055318;28;20199;-58
2023/03/23 05:12:42;;;;;;;5.35;4.85;;;20.10;78.10;;;;;;5053183;28;20196;-59
2023/03/23 05:15:10;;;;;;;5.38;4.82;;;20.10;78.10;;;;;;5053378;28;20206;-60
2023/03/23 05:17:37;;;;;;;6.55;5.25;;;20.10;78.10;;;;;;5067626;28;20568;-58
2023/03/23 05:20:08;;;;;;;5.97;5.40;;;20.10;78.10;;;;;;5060577;28;20539;-59
2023/03/23 05:22:36;;;;;;;5.25;4.72;;;20.10;78.10;;;;;;5058496;28;20230;-58
2023/03/23 05:25:05;;;;;;;5.38;4.90;;;20.10;78.10;;;;;;5066370;28;20195;-57
2023/03/23 05:27:32;;;;;;;5.68;4.70;;;20.10;78.10;;;;;;5063209;28;20223;-60
2023/03/23 05:30:00;;;;;;;4.47;4.07;;;20.00;78.00;;;;;;5061662;28;20202;-60
2023/03/23 05:32:29;;;;;;;4.85;4.43;;;20.00;77.90;;;;;;5064087;28;20203;-58
2023/03/23 05:34:56;;;;;;;4.93;4.53;;;20.00;78.00;;;;;;5062303;28;20199;-59
2023/03/23 05:37:23;;;;;;;5.18;4.70;;;20.00;78.00;;;;;;5060958;28;20214;-58
2023/03/23 05:39:53;;;;;;;5.35;4.57;;;20.00;78.00;;;;;;5059075;28;20199;-58
2023/03/23 05:42:21;;;;;;;5.13;4.28;;;20.00;78.00;;;;;;5064647;28;20205;-60
2023/03/23 05:44:48;;;;;;;5.70;4.90;;;20.00;78.00;;;;;;5062200;28;20595;-58
2023/03/23 05:47:15;;;;;;;5.78;5.13;;;20.00;78.10;;;;;;5050941;28;20329;-56
2023/03/23 05:49:41;;;;;;;4.10;3.70;;;20.00;78.10;;;;;;5044193;28;20203;-61
2023/03/23 05:52:08;;;;;;;4.93;4.38;;;20.00;78.10;;;;;;5061126;28;20225;-57
2023/03/23 05:54:35;;;;;;;6.60;5.68;;;20.00;78.10;;;;;;5053562;28;20203;-59
2023/03/23 05:57:02;;;;;;;4.38;3.97;;;20.00;78.10;;;;;;5060040;28;20198;-60
2023/03/23 05:59:30;;;;;;;4.40;3.83;;;20.00;78.10;;;;;;5057108;28;20195;-60
2023/03/23 06:01:57;;;;;;;5.00;4.50;;;20.00;78.10;;;;;;5054226;28;20202;-59
2023/03/23 06:04:24;;;;;;;4.35;3.95;;;20.00;78.10;;;;;;5056591;28;20195;-58
2023/03/23 06:06:51;;;;;;;6.65;4.35;;;20.00;78.10;;;;;;5052045;28;20678;-58
2023/03/23 06:09:18;;;;;;;4.28;3.90;;;20.00;78.10;;;;;;5053948;28;20216;-59
2023/03/23 06:11:45;;;;;;;4.75;4.13;;;20.00;78.10;;;;;;5055105;28;20191;-59
2023/03/23 06:14:12;;;;;;;5.05;4.55;;;19.90;78.10;;;;;;5057284;28;20722;-60
2023/03/23 06:16:40;;;;;;;6.57;4.57;;;20.00;78.20;;;;;;5050529;28;21308;-60
2023/03/23 06:19:07;;;;;;;4.95;4.45;;;20.00;78.00;;;;;;5060155;28;20724;-58
2023/03/23 06:21:34;;;;;;;5.50;5.00;;;20.00;78.70;;;;;;5054362;28;20219;-59
2023/03/23 06:24:01;;;;;;;4.43;4.03;;;20.00;77.70;;;;;;5057758;28;20705;-60
2023/03/23 06:26:30;;;;;;;4.82;4.22;;;20.00;77.70;;;;;;5061105;28;20663;-60
2023/03/23 06:28:57;;;;;;;4.32;3.92;;;20.10;77.70;;;;;;5055314;28;20222;-58
2023/03/23 06:31:25;;;;;;;4.20;3.90;;;20.10;77.70;;;;;;5058911;28;20666;-59
2023/03/23 06:33:53;;;;;;;4.78;4.30;;;20.10;77.70;;;;;;5058567;28;20195;-61
2023/03/23 06:36:19;;;;;;;5.05;4.55;;;20.10;77.70;;;;;;5053024;28;20206;-58
2023/03/23 06:38:47;;;;;;;4.00;3.70;;;20.10;77.70;;;;;;5056857;28;20207;-59
2023/03/23 06:41:14;;;;;;;4.13;3.75;;;20.10;77.70;;;;;;5051744;28;20218;-60
2023/03/23 06:43:40;;;;;;;4.28;3.88;;;20.10;77.70;;;;;;5052422;28;20210;-60
2023/03/23 06:46:08;;;;;;;4.32;3.92;;;20.10;77.70;;;;;;5051973;28;20203;-58
2023/03/23 06:48:34;;;;;;;4.28;3.75;;;20.10;77.70;;;;;;5059237;28;20214;-59
2023/03/23 06:51:03;;;;;;;5.43;4.30;;;20.10;77.60;;;;;;5050432;28;20199;-59
2023/03/23 06:53:29;;;;;;;4.30;3.90;;;20.10;77.60;;;;;;5050230;28;20223;-59
2023/03/23 06:55:57;;;;;;;3.42;2.88;;;20.10;77.60;;;;;;5058605;28;20199;-61
2023/03/23 06:58:24;;;;;;;4.80;3.90;;;20.10;77.70;;;;;;5058286;28;20195;-58
2023/03/23 07:00:56;;;;;;;4.93;4.13;;;20.10;77.60;;;;;;5053297;28;20203;-59
2023/03/23 07:03:23;;;;;;;5.28;4.38;;;20.10;77.60;;;;;;5059459;28;20192;-57
2023/03/23 07:05:50;;;;;;;4.32;3.92;;;20.20;77.70;;;;;;5059885;28;20195;-57
2023/03/23 07:08:19;;;;;;;3.88;3.58;;;20.20;78.50;;;;;;5058017;28;20338;-60
2023/03/23 07:10:45;;;;;;;4.47;4.18;;;20.20;77.70;;;;;;5059181;28;20210;-57
2023/03/23 07:13:12;;;;;;;3.95;3.53;;;20.20;77.60;;;;;;5057257;28;20233;-60
2023/03/23 07:15:40;;;;;;;5.93;4.25;;;20.30;77.80;;;;;;5053563;28;20198;-57
2023/03/23 07:18:06;;;;;;;4.05;3.65;;;20.30;77.60;;;;;;5068235;28;20203;-56
2023/03/23 07:20:33;;;;;;;3.67;3.22;;;20.30;77.70;;;;;;5061667;28;20220;-59
2023/03/23 07:23:01;;;;;;;3.35;3.05;;;20.30;77.60;;;;;;5063632;28;20247;-59
2023/03/23 07:25:30;;;;;;;3.80;3.38;;;20.30;77.50;;;;;;5068371;28;20605;-58
2023/03/23 07:27:56;;;;;;;3.97;3.58;;;20.30;77.60;;;;;;5061698;28;20221;-56
2023/03/23 07:30:23;;;;;;;4.70;3.78;;;20.30;77.60;;;;;;5059490;28;20212;-61
2023/03/23 07:32:50;;;;;;;4.20;3.63;;;20.40;77.70;;;;;;5064978;28;20198;-57
2023/03/23 07:35:17;;;;;;;4.15;3.63;;;20.40;77.60;;;;;;5065558;28;20218;-59
2023/03/23 07:37:45;;;;;;;4.00;3.60;;;20.40;77.70;;;;;;5060913;28;20281;-59
2023/03/23 07:40:15;;;;;;;3.65;3.35;;;20.40;77.70;;;;;;5068076;28;20691;-54
2023/03/23 07:42:44;;;;;;;3.78;3.47;;;20.40;77.60;;;;;;5065431;28;20222;-59
2023/03/23 07:45:12;;;;;;;3.65;3.35;;;20.40;77.60;;;;;;5056303;28;20210;-59
2023/03/23 07:47:40;;;;;;;3.90;3.60;;;20.40;77.60;;;;;;5061323;28;20200;-59
2023/03/23 07:50:08;;;;;;;4.68;4.28;;;20.40;77.60;;;;;;5054718;28;20195;-58
2023/03/23 07:52:35;;;;;;;4.35;3.97;;;20.40;77.70;;;;;;5059142;28;21468;-58
2023/03/23 07:55:03;;;;;;;3.22;2.95;;;20.40;77.60;;;;;;5059390;28;20207;-57
2023/03/23 07:57:29;;;;;;;3.70;3.35;;;20.40;77.60;;;;;;5059028;28;20210;-59
2023/03/23 07:59:59;;;;;;;3.65;3.13;;;20.40;77.50;;;;;;5051528;28;20216;-59
2023/03/23 08:02:27;;;;;;;4.40;3.28;;;20.40;77.50;;;;;;5053852;28;20687;-56
2023/03/23 08:04:56;;;;;;;3.10;2.90;;;20.40;77.50;;;;;;5055390;28;20231;-58
2023/03/23 08:07:23;;;;;;;3.85;3.50;;;20.40;77.50;;;;;;5057292;28;20695;-60
2023/03/23 08:09:49;;;;;;;4.05;3.67;;;20.50;78.40;;;;;;5058775;28;20215;-59
2023/03/23 08:12:16;;;;;;;3.50;3.20;;;20.50;77.50;;;;;;5054020;28;20574;-60
2023/03/23 08:14:43;;;;;;;3.38;3.03;;;20.50;77.50;;;;;;5051430;28;20657;-57
2023/03/23 08:17:11;;;;;;;3.90;3.50;;;20.50;77.60;;;;;;5052451;28;20192;-60
2023/03/23 08:19:38;;;;;;;4.13;3.22;;;20.50;77.60;;;;;;5060200;28;20206;-59
2023/03/23 08:22:05;;;;;;;3.70;3.28;;;20.50;77.60;;;;;;5056370;28;20225;-61
2023/03/23 08:24:32;;;;;;;3.28;2.97;;;20.50;77.50;;;;;;5063241;28;20202;-60
2023/03/23 08:26:59;;;;;;;3.55;3.25;;;20.50;77.50;;;;;;5063707;28;20195;-60
2023/03/23 08:29:26;;;;;;;3.33;3.03;;;20.50;77.50;;;;;;5056077;28;20309;-59
2023/03/23 08:31:53;;;;;;;3.80;2.92;;;20.50;77.60;;;;;;5060312;28;20187;-57
2023/03/23 08:34:21;;;;;;;3.47;3.17;;;20.50;77.50;;;;;;5067239;28;20201;-59
2023/03/23 08:36:48;;;;;;;3.27;2.97;;;20.50;77.50;;;;;;5056638;28;20196;-59
2023/03/23 08:39:15;;;;;;;3.38;3.15;;;20.60;77.60;;;;;;5065262;28;20833;-60
2023/03/23 08:41:44;;;;;;;3.00;2.80;;;20.60;77.60;;;;;;5062418;28;20285;-58
2023/03/23 08:44:11;;;;;;;3.53;3.13;;;20.60;77.60;;;;;;5056714;28;20210;-60
2023/03/23 08:46:38;;;;;;;2.88;2.60;;;20.60;77.60;;;;;;5061920;28;20290;-58
2023/03/23 08:49:05;;;;;;;2.80;2.60;;;20.60;77.60;;;;;;5061563;28;20218;-60
2023/03/23 08:51:34;;;;;;;2.80;2.60;;;20.60;77.50;;;;;;5054812;28;20195;-57
2023/03/23 08:54:01;;;;;;;3.53;2.63;;;20.60;77.50;;;;;;5055569;28;20465;-60
2023/03/23 08:56:28;;;;;;;3.85;3.45;;;20.60;77.50;;;;;;5065979;28;20595;-58
2023/03/23 08:58:54;;;;;;;3.35;3.00;;;20.60;78.30;;;;;;5063434;28;20658;-57
2023/03/23 09:01:21;;;;;;;5.13;2.67;;;20.60;77.50;;;;;;5059494;28;20671;-60
2023/03/23 09:03:48;;;;;;;3.50;2.95;;;20.60;77.50;;;;;;5060820;28;20461;-60
2023/03/23 09:06:15;;;;;;;2.90;2.70;;;20.60;77.40;;;;;;5054701;28;20204;-58
2023/03/23 09:08:44;;;;;;;2.97;2.63;;;20.60;77.40;;;;;;5067695;28;20211;-59
2023/03/23 09:11:11;;;;;;;3.38;3.08;;;20.60;77.40;;;;;;5063606;28;20199;-59
2023/03/23 09:13:39;;;;;;;2.47;2.28;;;20.60;77.40;;;;;;5060750;28;20198;-60
2023/03/23 09:16:08;;;;;;;2.80;2.50;;;20.60;77.30;;;;;;5062374;28;20198;-57
2023/03/23 09:18:35;;;;;;;3.00;2.53;;;20.70;77.50;;;;;;5063650;28;20198;-60
2023/03/23 09:21:04;;;;;;;3.92;2.85;;;20.70;77.50;;;;;;5061415;28;20199;-53
2023/03/23 09:23:31;;;;;;;9.27;2.97;;;20.70;77.60;;;;;;5067091;28;20225;-59
2023/03/23 09:26:01;;;;;;;3.70;2.20;;;20.70;77.50;;;;;;5068603;28;20194;-60
2023/03/23 09:28:28;;;;;;;3.83;2.45;;;20.70;77.00;;;;;;5064183;28;20513;-59
2023/03/23 09:30:57;;;;;;;3.22;2.92;;;20.70;76.80;;;;;;5068083;28;20196;-58
2023/03/23 09:33:24;;;;;;;3.17;2.72;;;20.60;76.70;;;;;;5062049;28;20199;-56
2023/03/23 09:35:51;;;;;;;4.28;2.88;;;20.60;76.70;;;;;;5065593;28;20212;-54
2023/03/23 09:38:19;;;;;;;3.27;2.97;;;20.60;77.90;;;;;;5064781;28;20221;-57
2023/03/23 09:40:49;;;;;;;2.70;2.47;;;20.60;77.40;;;;;;5061040;28;20448;-58
2023/03/23 09:43:38;;;;;;;2.38;2.17;;;20.60;77.30;;;;;;5064607;28;20473;-53
2023/03/23 09:46:31;;;;;;;2.78;2.58;;;20.60;77.10;;;;;;5060548;28;20206;-57
2023/03/23 09:49:02;;;;;;;2.37;2.17;;;20.60;77.00;;;;;;5061870;28;20222;-57
2023/03/23 09:51:38;;;;;;;3.33;2.30;;;20.60;76.90;;;;;;5058757;28;20453;-52
2023/03/23 09:54:18;;;;;;;2.30;2.10;;;20.60;76.70;;;;;;5059203;28;20654;-56
2023/03/23 09:56:46;;;;;;;2.90;2.30;;;20.60;76.70;;;;;;5058115;28;20464;-56
2023/03/23 09:59:19;;;;;;;2.10;1.90;;;20.60;76.60;;;;;;5058320;28;20203;-56
2023/03/23 10:01:48;;;;;;;3.45;2.58;;;20.60;76.60;;;;;;5057754;28;20458;-58
2023/03/23 10:04:25;;;;;;;2.63;2.38;;;20.60;76.50;;;;;;5059193;28;20199;-53
2023/03/23 10:06:52;;;;;;;2.72;2.10;;;20.60;76.50;;;;;;5061105;28;20456;-56
2023/03/23 10:09:20;;;;;;;2.40;2.20;;;20.60;76.50;;;;;;5058763;28;20272;-52
2023/03/23 10:11:58;;;;;;;3.72;2.53;;;20.60;76.40;;;;;;5062506;28;20202;-53
2023/03/23 10:14:37;;;;;;;3.20;2.33;;;20.60;76.40;;;;;;5057214;28;20208;-58
2023/03/23 10:17:14;;;;;;;2.80;2.60;;;20.60;76.40;;;;;;5058093;28;20263;-56
2023/03/23 10:19:47;;;;;;;3.30;2.55;;;20.60;76.50;;;;;;5061337;28;20483;-53
2023/03/23 10:22:19;;;;;;;2.72;2.17;;;20.60;76.30;;;;;;5060356;28;20716;-52
2023/03/23 10:24:51;;;;;;;4.40;3.10;;;20.60;76.40;;;;;;5064646;28;20202;-55
2023/03/23 10:27:25;;;;;;;2.40;1.80;;;20.60;76.30;;;;;;5054400;28;20879;-52
2023/03/23 10:29:58;;;;;;;3.15;2.85;;;20.60;76.30;;;;;;5058384;28;20229;-55
2023/03/23 10:32:40;;;;;;;2.93;2.50;;;20.60;76.30;;;;;;5053887;28;20194;-55
2023/03/23 10:35:12;;;;;;;2.60;2.20;;;20.60;76.40;;;;;;5054212;28;20462;-57
2023/03/23 10:37:43;;;;;;;2.42;2.22;;;20.60;76.30;;;;;;5050735;28;20457;-55
2023/03/23 10:40:16;;;;;;;4.90;2.10;;;20.60;76.30;;;;;;5056436;28;20293;-58
2023/03/23 10:42:43;;;;;;;5.05;2.45;;;20.60;76.40;;;;;;5054500;28;20458;-55
2023/03/23 10:45:18;;;;;;;5.23;2.00;;;20.60;76.30;;;;;;5050626;28;20211;-58
2023/03/23 10:47:52;;;;;;;2.70;2.50;;;20.60;76.50;;;;;;5053958;28;20864;-55
2023/03/23 10:50:24;;;;;;;3.00;1.90;;;20.70;76.60;;;;;;5051455;28;20488;-62
2023/03/23 10:52:53;;;;;;;4.10;2.10;;;20.80;76.70;;;;;;5059659;28;21155;-60
2023/03/23 10:55:22;;;;;;;2.60;1.97;;;20.80;76.70;;;;;;5056165;28;20543;-62
2023/03/23 10:58:00;;;;;;;3.87;2.10;;;20.90;76.80;;;;;;5058463;28;20468;-58
2023/03/23 11:00:30;;;;;;;2.30;1.50;;;20.90;76.90;;;;;;5060061;28;20802;-62
2023/03/23 11:03:03;;;;;;;2.15;1.95;;;20.90;77.00;;;;;;5059944;28;20469;-63
2023/03/23 11:05:37;;;;;;;2.77;2.10;;;20.90;77.10;;;;;;5055718;28;20202;-60
2023/03/23 11:08:05;;;;;;;2.10;1.90;;;21.00;77.20;;;;;;5056072;28;20457;-63
2023/03/23 11:10:38;;;;;;;2.50;2.30;;;21.00;77.40;;;;;;5057961;28;20492;-63
2023/03/23 11:13:09;;;;;;;2.10;1.63;;;21.00;77.50;;;;;;5059725;28;20464;-62
2023/03/23 11:15:39;;;;;;;1.83;1.70;;;21.00;77.50;;;;;;5060167;28;20494;-56
2023/03/23 11:18:11;;;;;;;1.63;1.53;;;21.00;77.60;;;;;;5061844;28;20461;-63
2023/03/23 11:20:41;;;;;;;1.83;1.63;;;21.00;77.60;;;;;;5059512;28;20457;-60
2023/03/23 11:23:22;;;;;;;3.63;2.40;;;21.10;77.80;;;;;;5062566;28;20481;-60
2023/03/23 11:25:58;;;;;;;2.30;2.10;;;21.10;77.80;;;;;;5062335;28;20554;-58
2023/03/23 11:28:31;;;;;;;1.73;1.47;;;21.10;77.90;;;;;;5063329;28;20464;-52
2023/03/23 11:31:01;;;;;;;1.73;1.50;;;21.10;77.90;;;;;;5061626;28;20562;-51
2023/03/23 11:33:37;;;;;;;2.87;1.90;;;21.10;77.90;;;;;;5059497;28;20868;-57
2023/03/23 11:36:04;;;;;;;2.87;1.80;;;21.10;78.00;;;;;;5060842;28;20461;-57
2023/03/23 11:38:31;;;;;;;3.20;2.00;;;21.10;77.80;;;;;;5061191;28;20463;-59
2023/03/23 11:41:00;;;;;;;4.00;2.90;;;21.00;77.70;;;;;;5065246;28;20508;-57
2023/03/23 11:43:27;;;;;;;2.00;1.33;;;21.10;77.80;;;;;;5063255;28;20485;-56
2023/03/23 11:46:15;;;;;;;2.13;1.93;;;21.10;77.80;;;;;;5058227;28;20820;-52
2023/03/23 11:48:49;;;;;;;1.33;1.20;;;21.10;77.80;;;;;;5057301;28;20464;-54
2023/03/23 11:51:24;;;;;;;3.63;1.60;;;21.10;77.80;;;;;;5055279;28;20483;-54
2023/03/23 11:53:58;;;;;;;2.33;1.90;;;21.10;77.80;;;;;;5063086;28;20712;-56
2023/03/23 11:56:27;;;;;;;2.30;1.60;;;21.20;77.90;;;;;;5063996;28;20468;-55
2023/03/23 11:58:56;;;;;;;2.07;1.80;;;21.20;78.70;;;;;;5056456;28;20473;-57
2023/03/23 12:01:43;;;;;;;4.03;1.60;;;21.20;78.70;;;;;;5056021;28;20475;-63
2023/03/23 12:04:42;;;;;;;2.23;1.60;;;21.20;77.90;;;;;;5050561;28;20469;-58
2023/03/23 12:07:22;;;;;;;2.23;1.60;;;21.20;77.90;;;;;;5049782;28;20537;-59
2023/03/23 12:09:56;;;;;;;1.93;1.67;;;21.30;78.10;;;;;;5059372;28;20488;-50
2023/03/23 12:12:31;;;;;;;1.90;1.80;;;21.20;78.00;;;;;;5064950;28;20593;-52
2023/03/23 12:15:08;;;;;;;1.93;1.83;;;21.30;78.10;;;;;;5058400;28;20948;-56
2023/03/23 12:17:47;;;;;;;2.20;1.37;;;21.30;78.10;;;;;;5057427;28;20472;-56
2023/03/23 12:20:24;;;;;;;2.23;1.60;;;21.30;78.10;;;;;;5057656;28;20469;-59
2023/03/23 12:23:02;;;;;;;1.50;1.40;;;21.30;78.10;;;;;;5060594;28;20476;-52
2023/03/23 12:25:46;;;;;;;2.33;1.83;;;21.30;78.10;;;;;;5058747;28;20454;-52
2023/03/23 12:28:23;;;;;;;2.30;2.10;;;21.30;78.00;;;;;;5059149;28;20460;-51
2023/03/23 12:30:56;;;;;;;1.63;1.47;;;21.30;78.10;;;;;;5059024;28;20500;-56
2023/03/23 12:33:33;;;;;;;1.57;1.47;;;21.30;78.10;;;;;;5062519;28;20457;-52
2023/03/23 12:36:10;;;;;;;2.67;1.67;;;21.30;78.10;;;;;;5052938;28;20457;-51
2023/03/23 12:39:06;;;;;;;2.00;1.57;;;21.30;78.10;;;;;;5053639;28;20465;-57
2023/03/23 12:41:39;;;;;;;1.20;1.10;;;21.40;78.20;;;;;;5058375;28;20477;-57
2023/03/23 12:44:09;;;;;;;1.73;1.30;;;21.40;78.30;;;;;;5060507;28;20466;-54
2023/03/23 12:47:06;;;;;;;1.60;1.50;;;21.40;78.40;;;;;;5054892;28;21044;-56
2023/03/23 12:49:38;;;;;;;1.70;1.20;;;21.40;78.40;;;;;;5050937;28;20980;-58
2023/03/23 12:52:13;;;;;;;1.80;1.37;;;21.40;79.20;;;;;;5061607;28;20461;-54
2023/03/23 12:54:48;;;;;;;1.40;1.30;;;21.40;78.40;;;;;;5058371;28;20909;-56
2023/03/23 12:57:20;;;;;;;2.07;1.90;;;21.40;78.40;;;;;;5057475;28;20476;-60
2023/03/23 12:59:53;;;;;;;1.50;1.40;;;21.40;78.40;;;;;;5054312;28;20453;-53
2023/03/23 13:02:23;;;;;;;1.47;1.37;;;21.40;78.50;;;;;;5056070;28;20452;-54